createdAt,value
2024-03-02T00:06:01.700Z,6.14
2024-03-02T00:14:25.730Z,6.09
2024-03-02T00:22:51.367Z,6.09
2024-03-02T00:31:15.601Z,6.04
2024-03-02T00:39:38.814Z,6.06
2024-03-02T00:48:01.891Z,5.97
2024-03-02T00:56:26.204Z,5.91
2024-03-02T01:04:49.280Z,5.84
2024-03-02T01:13:12.784Z,5.71
2024-03-02T01:21:36.022Z,5.68
2024-03-02T01:30:00.996Z,5.65
2024-03-02T01:38:24.007Z,5.54
2024-03-02T01:46:47.241Z,5.56
2024-03-02T01:55:10.384Z,5.48
2024-03-02T02:03:35.339Z,5.39
2024-03-02T02:11:58.333Z,5.39
2024-03-02T02:20:21.272Z,5.31
2024-03-02T02:28:48.364Z,5.24
2024-03-02T02:37:11.571Z,5.22
2024-03-02T02:45:34.466Z,5.12
2024-03-02T02:53:57.464Z,5.12
2024-03-02T03:02:20.424Z,5.06
2024-03-02T03:10:44.064Z,5.06
2024-03-02T03:19:07.052Z,4.99
2024-03-02T03:27:30.160Z,5.01
2024-03-02T03:35:54.195Z,5.02
2024-03-02T03:44:17.114Z,5.09
2024-03-02T03:52:39.931Z,5.08
2024-03-02T04:01:03.001Z,5.12
2024-03-02T04:09:26.845Z,5.12
2024-03-02T04:17:50.167Z,5.15
2024-03-02T04:26:13.204Z,5.20
2024-03-02T04:34:36.070Z,5.20
2024-03-02T04:43:00.443Z,5.26
2024-03-02T04:51:23.514Z,5.27
2024-03-02T04:59:46.704Z,5.32
2024-03-02T05:08:09.595Z,5.30
2024-03-02T05:16:39.700Z,5.33
2024-03-02T05:25:04.118Z,5.36
2024-03-02T05:33:27.338Z,5.46
2024-03-02T05:41:50.338Z,5.51
2024-03-02T05:50:13.453Z,5.60
2024-03-02T05:58:56.821Z,5.64
2024-03-02T06:07:20.149Z,5.74
2024-03-02T06:15:43.152Z,5.78
2024-03-02T06:24:06.723Z,5.88
2024-03-02T06:32:29.935Z,5.93
2024-03-02T06:40:53.408Z,6.03
2024-03-02T06:49:16.353Z,6.10
2024-03-02T06:57:39.254Z,6.25
2024-03-02T07:06:02.178Z,6.30
2024-03-02T07:14:45.119Z,6.31
2024-03-02T07:23:08.021Z,6.40
2024-03-02T07:31:31.110Z,6.48
2024-03-02T07:39:54.097Z,6.60
2024-03-02T07:48:17.288Z,6.67
2024-03-02T07:56:40.390Z,6.83
2024-03-02T08:05:03.356Z,6.95
2024-03-02T08:13:26.199Z,7.13
2024-03-02T08:21:49.193Z,7.30
2024-03-02T08:30:13.360Z,7.33
2024-03-02T08:38:36.304Z,7.39
2024-03-02T08:47:00.061Z,7.48
2024-03-02T08:55:23.050Z,7.70
2024-03-02T09:03:47.102Z,8.02
2024-03-02T09:12:10.597Z,8.25
2024-03-02T09:20:33.597Z,8.43
2024-03-02T09:28:56.613Z,8.46
2024-03-02T09:37:19.517Z,8.43
2024-03-02T09:45:42.694Z,8.37
2024-03-02T09:54:17.548Z,8.62
2024-03-02T10:02:45.393Z,8.84
2024-03-02T10:11:08.525Z,8.98
2024-03-02T10:19:36.230Z,9.09
2024-03-02T10:28:00.969Z,9.30
2024-03-02T10:36:24.119Z,9.40
2024-03-02T10:44:48.007Z,9.53
2024-03-02T10:53:11.903Z,9.66
2024-03-02T11:01:35.883Z,9.89
2024-03-02T11:10:10.122Z,10.24
2024-03-02T11:18:34.593Z,10.48
2024-03-02T11:26:59.110Z,10.68
2024-03-02T11:35:22.194Z,11.05
2024-03-02T11:43:45.865Z,10.97
2024-03-02T11:52:11.080Z,10.96
2024-03-02T12:00:34.741Z,10.83
2024-03-02T12:08:57.787Z,10.74
2024-03-02T12:17:20.888Z,10.61
2024-03-02T12:25:44.499Z,10.54
2024-03-02T12:34:08.399Z,10.65
2024-03-02T12:42:31.404Z,10.54
2024-03-02T12:50:54.574Z,10.27
2024-03-02T12:59:25.178Z,10.14
2024-03-02T13:07:49.609Z,10.15
2024-03-02T13:16:14.024Z,10.03
2024-03-02T13:24:37.730Z,9.94
2024-03-02T13:33:00.840Z,9.72
2024-03-02T13:41:23.929Z,9.75
2024-03-02T13:49:48.338Z,9.79
2024-03-02T13:58:12.201Z,9.62
2024-03-02T14:06:35.877Z,9.49
2024-03-02T14:15:03.591Z,9.42
2024-03-02T14:23:27.331Z,9.42
2024-03-02T14:31:50.525Z,9.27
2024-03-02T14:40:14.394Z,9.13
2024-03-02T14:48:39.234Z,9.14
2024-03-02T14:57:04.081Z,9.06
2024-03-02T15:05:27.937Z,8.91
2024-03-02T15:13:51.412Z,8.85
2024-03-02T15:22:14.781Z,8.73
2024-03-02T15:30:37.901Z,8.58
2024-03-02T15:39:02.076Z,8.52
2024-03-02T15:47:25.154Z,8.39
2024-03-02T15:55:48.410Z,8.28
2024-03-02T16:04:11.897Z,8.27
2024-03-02T16:12:35.030Z,8.20
2024-03-02T16:20:58.483Z,8.11
2024-03-02T16:29:23.845Z,8.07
2024-03-02T16:37:48.957Z,7.98
2024-03-02T16:46:13.837Z,7.94
2024-03-02T16:54:38.177Z,7.99
2024-03-02T17:03:03.389Z,7.98
2024-03-02T17:11:27.394Z,7.94
2024-03-02T17:19:52.351Z,7.93
2024-03-02T17:28:30.589Z,7.89
2024-03-02T17:37:00.307Z,7.77
2024-03-02T17:45:27.277Z,7.77
2024-03-02T17:53:53.912Z,7.71
2024-03-02T18:02:17.713Z,7.60
2024-03-02T18:10:41.355Z,7.59
2024-03-02T18:19:08.663Z,7.55
2024-03-02T18:27:36.790Z,7.46
2024-03-02T18:36:01.685Z,7.46
2024-03-02T18:44:25.764Z,7.41
2024-03-02T18:52:51.318Z,7.35
2024-03-02T19:01:16.285Z,7.44
2024-03-02T19:09:39.315Z,7.44
2024-03-02T19:18:02.568Z,7.32
2024-03-02T19:26:29.558Z,7.33
2024-03-02T19:34:53.832Z,7.29
2024-03-02T19:43:19.111Z,7.25
2024-03-02T19:51:43.595Z,7.35
2024-03-02T20:00:11.476Z,7.34
2024-03-02T20:08:34.554Z,7.31
2024-03-02T20:17:00.518Z,7.39
2024-03-02T20:25:23.819Z,7.44
2024-03-02T20:33:50.646Z,7.41
2024-03-02T20:42:16.998Z,7.47
2024-03-02T20:50:40.554Z,7.44
2024-03-02T20:59:04.529Z,7.34
2024-03-02T21:07:27.948Z,7.39
2024-03-02T21:15:55.619Z,7.42
2024-03-02T21:24:18.605Z,7.39
2024-03-02T21:32:41.616Z,7.40
2024-03-02T21:41:04.759Z,7.35
2024-03-02T21:49:27.676Z,7.27
2024-03-02T21:57:50.875Z,7.28
2024-03-02T22:06:14.982Z,7.21
2024-03-02T22:14:38.951Z,7.11
2024-03-02T22:23:01.810Z,7.11
2024-03-02T22:31:24.813Z,7.07
2024-03-02T22:39:48.102Z,6.99
2024-03-02T22:48:11.389Z,7.02
2024-03-02T22:56:34.312Z,7.01
2024-03-02T23:04:57.171Z,6.93
2024-03-02T23:13:20.340Z,6.84
2024-03-02T23:21:43.891Z,6.89
2024-03-02T23:30:07.520Z,6.84
2024-03-02T23:38:30.623Z,6.75
2024-03-02T23:46:53.820Z,6.67
2024-03-02T23:55:16.770Z,6.72
